sensor_id;sensor_type;location;lat;lon;timestamp;pressure;altitude;pressure_sealevel;temperature
15709;BMP180;7954;51.914;8.420;2023-06-22T00:02:01;100601.34;;;28.79
15709;BMP180;7954;51.914;8.420;2023-06-22T00:04:29;100617.59;;;28.77
15709;BMP180;7954;51.914;8.420;2023-06-22T00:06:56;100610.97;;;28.72
15709;BMP180;7954;51.914;8.420;2023-06-22T00:09:26;100607.78;;;28.66
15709;BMP180;7954;51.914;8.420;2023-06-22T00:11:54;100607.16;;;28.60
15709;BMP180;7954;51.914;8.420;2023-06-22T00:14:21;100598.63;;;28.53
15709;BMP180;7954;51.914;8.420;2023-06-22T00:16:50;100596.63;;;28.50
15709;BMP180;7954;51.914;8.420;2023-06-22T00:19:21;100588.06;;;28.43
15709;BMP180;7954;51.914;8.420;2023-06-22T00:21:50;100589.16;;;28.36
15709;BMP180;7954;51.914;8.420;2023-06-22T00:24:19;100592.09;;;28.31
15709;BMP180;7954;51.914;8.420;2023-06-22T00:26:48;100594.69;;;28.31
15709;BMP180;7954;51.914;8.420;2023-06-22T00:29:16;100587.78;;;28.31
15709;BMP180;7954;51.914;8.420;2023-06-22T00:31:45;100591.31;;;28.32
15709;BMP180;7954;51.914;8.420;2023-06-22T00:34:14;100587.03;;;28.24
15709;BMP180;7954;51.914;8.420;2023-06-22T00:36:42;100583.38;;;28.22
15709;BMP180;7954;51.914;8.420;2023-06-22T00:39:10;100577.72;;;28.17
15709;BMP180;7954;51.914;8.420;2023-06-22T00:41:38;100571.16;;;28.21
15709;BMP180;7954;51.914;8.420;2023-06-22T00:44:07;100570.22;;;28.20
15709;BMP180;7954;51.914;8.420;2023-06-22T00:46:36;100548.81;;;28.23
15709;BMP180;7954;51.914;8.420;2023-06-22T00:49:03;100554.63;;;28.20
15709;BMP180;7954;51.914;8.420;2023-06-22T00:51:32;100563.22;;;28.19
15709;BMP180;7954;51.914;8.420;2023-06-22T00:54:00;100560.44;;;28.18
15709;BMP180;7954;51.914;8.420;2023-06-22T00:56:28;100565.63;;;28.18
15709;BMP180;7954;51.914;8.420;2023-06-22T00:58:57;100552.94;;;28.12
15709;BMP180;7954;51.914;8.420;2023-06-22T01:01:28;100539.66;;;28.09
15709;BMP180;7954;51.914;8.420;2023-06-22T01:03:56;100559.19;;;28.06
15709;BMP180;7954;51.914;8.420;2023-06-22T01:06:29;100554.91;;;28.06
15709;BMP180;7954;51.914;8.420;2023-06-22T01:09:02;100564.25;;;28.04
15709;BMP180;7954;51.914;8.420;2023-06-22T01:11:36;100564.53;;;27.99
15709;BMP180;7954;51.914;8.420;2023-06-22T01:14:10;100559.81;;;27.95
15709;BMP180;7954;51.914;8.420;2023-06-22T01:16:44;100565.00;;;27.95
15709;BMP180;7954;51.914;8.420;2023-06-22T01:19:24;100565.63;;;27.92
15709;BMP180;7954;51.914;8.420;2023-06-22T01:21:57;100557.69;;;27.91
15709;BMP180;7954;51.914;8.420;2023-06-22T01:24:30;100567.13;;;27.91
15709;BMP180;7954;51.914;8.420;2023-06-22T01:27:09;100565.63;;;27.92
15709;BMP180;7954;51.914;8.420;2023-06-22T01:29:42;100565.28;;;27.90
15709;BMP180;7954;51.914;8.420;2023-06-22T01:32:11;100563.47;;;27.89
15709;BMP180;7954;51.914;8.420;2023-06-22T01:34:40;100559.50;;;27.84
15709;BMP180;7954;51.914;8.420;2023-06-22T01:37:09;100564.09;;;27.86
15709;BMP180;7954;51.914;8.420;2023-06-22T01:39:37;100555.34;;;27.77
15709;BMP180;7954;51.914;8.420;2023-06-22T01:42:06;100550.94;;;27.76
15709;BMP180;7954;51.914;8.420;2023-06-22T01:44:34;100558.56;;;27.75
15709;BMP180;7954;51.914;8.420;2023-06-22T01:47:04;100566.03;;;27.72
15709;BMP180;7954;51.914;8.420;2023-06-22T01:49:32;100562.22;;;27.68
15709;BMP180;7954;51.914;8.420;2023-06-22T01:52:00;100561.91;;;27.65
15709;BMP180;7954;51.914;8.420;2023-06-22T01:54:29;100565.59;;;27.59
15709;BMP180;7954;51.914;8.420;2023-06-22T01:56:57;100563.38;;;27.55
15709;BMP180;7954;51.914;8.420;2023-06-22T01:59:28;100559.72;;;27.53
15709;BMP180;7954;51.914;8.420;2023-06-22T02:02:02;100563.38;;;27.55
15709;BMP180;7954;51.914;8.420;2023-06-22T02:04:36;100558.97;;;27.54
15709;BMP180;7954;51.914;8.420;2023-06-22T02:07:13;100557.44;;;27.56
15709;BMP180;7954;51.914;8.420;2023-06-22T02:09:44;100561.56;;;27.54
15709;BMP180;7954;51.914;8.420;2023-06-22T02:12:17;100564.28;;;27.47
15709;BMP180;7954;51.914;8.420;2023-06-22T02:14:46;100569.94;;;27.43
15709;BMP180;7954;51.914;8.420;2023-06-22T02:17:16;100576.47;;;27.39
15709;BMP180;7954;51.914;8.420;2023-06-22T02:19:45;100575.56;;;27.39
15709;BMP180;7954;51.914;8.420;2023-06-22T02:22:13;100575.88;;;27.42
15709;BMP180;7954;51.914;8.420;2023-06-22T02:24:42;100577.09;;;27.37
15709;BMP180;7954;51.914;8.420;2023-06-22T02:27:10;100567.59;;;27.37
15709;BMP180;7954;51.914;8.420;2023-06-22T02:29:39;100577.38;;;27.31
15709;BMP180;7954;51.914;8.420;2023-06-22T02:32:07;100566.22;;;27.24
15709;BMP180;7954;51.914;8.420;2023-06-22T02:34:36;100574.91;;;27.25
15709;BMP180;7954;51.914;8.420;2023-06-22T02:37:06;100569.56;;;27.23
15709;BMP180;7954;51.914;8.420;2023-06-22T02:39:34;100569.22;;;27.20
15709;BMP180;7954;51.914;8.420;2023-06-22T02:42:03;100568.47;;;27.21
15709;BMP180;7954;51.914;8.420;2023-06-22T02:44:31;100572.16;;;27.23
15709;BMP180;7954;51.914;8.420;2023-06-22T02:46:59;100569.88;;;27.26
15709;BMP180;7954;51.914;8.420;2023-06-22T02:49:31;100563.19;;;27.28
15709;BMP180;7954;51.914;8.420;2023-06-22T02:52:01;100562.72;;;27.32
15709;BMP180;7954;51.914;8.420;2023-06-22T02:54:30;100562.13;;;27.34
15709;BMP180;7954;51.914;8.420;2023-06-22T02:56:59;100563.31;;;27.29
15709;BMP180;7954;51.914;8.420;2023-06-22T02:59:29;100557.22;;;27.29
15709;BMP180;7954;51.914;8.420;2023-06-22T03:02:00;100565.16;;;27.30
15709;BMP180;7954;51.914;8.420;2023-06-22T03:04:29;100564.84;;;27.27
15709;BMP180;7954;51.914;8.420;2023-06-22T03:06:57;100570.22;;;27.29
15709;BMP180;7954;51.914;8.420;2023-06-22T03:09:29;100562.09;;;27.26
15709;BMP180;7954;51.914;8.420;2023-06-22T03:11:57;100555.06;;;27.25
15709;BMP180;7954;51.914;8.420;2023-06-22T03:14:25;100568.03;;;27.25
15709;BMP180;7954;51.914;8.420;2023-06-22T03:16:54;100558.25;;;27.23
15709;BMP180;7954;51.914;8.420;2023-06-22T03:19:28;100559.94;;;27.22
15709;BMP180;7954;51.914;8.420;2023-06-22T03:21:59;100555.97;;;27.17
15709;BMP180;7954;51.914;8.420;2023-06-22T03:24:27;100546.94;;;27.14
15709;BMP180;7954;51.914;8.420;2023-06-22T03:26:57;100548.03;;;27.16
15709;BMP180;7954;51.914;8.420;2023-06-22T03:29:25;100546.94;;;27.14
15709;BMP180;7954;51.914;8.420;2023-06-22T03:31:56;100554.72;;;27.14
15709;BMP180;7954;51.914;8.420;2023-06-22T03:34:26;100555.66;;;27.14
15709;BMP180;7954;51.914;8.420;2023-06-22T03:36:53;100557.47;;;27.15
15709;BMP180;7954;51.914;8.420;2023-06-22T03:39:22;100556.72;;;27.16
15709;BMP180;7954;51.914;8.420;2023-06-22T03:41:50;100551.22;;;27.13
15709;BMP180;7954;51.914;8.420;2023-06-22T03:44:19;100550.03;;;27.18
15709;BMP180;7954;51.914;8.420;2023-06-22T03:46:47;100565.44;;;27.25
15709;BMP180;7954;51.914;8.420;2023-06-22T03:49:16;100553.69;;;27.28
15709;BMP180;7954;51.914;8.420;2023-06-22T03:51:44;100552.03;;;27.29
15709;BMP180;7954;51.914;8.420;2023-06-22T03:54:12;100546.84;;;27.29
15709;BMP180;7954;51.914;8.420;2023-06-22T03:56:40;100546.06;;;27.30
15709;BMP180;7954;51.914;8.420;2023-06-22T03:59:08;100540.88;;;27.30
15709;BMP180;7954;51.914;8.420;2023-06-22T04:01:38;100553.84;;;27.30
15709;BMP180;7954;51.914;8.420;2023-06-22T04:04:06;100541.97;;;27.32
15709;BMP180;7954;51.914;8.420;2023-06-22T04:06:34;100543.06;;;27.34
15709;BMP180;7954;51.914;8.420;2023-06-22T04:09:02;100552.63;;;27.35
15709;BMP180;7954;51.914;8.420;2023-06-22T04:11:30;100551.28;;;27.38
15709;BMP180;7954;51.914;8.420;2023-06-22T04:13:58;100560.00;;;27.39
15709;BMP180;7954;51.914;8.420;2023-06-22T04:16:27;100551.91;;;27.44
15709;BMP180;7954;51.914;8.420;2023-06-22T04:18:57;100552.41;;;27.49
15709;BMP180;7954;51.914;8.420;2023-06-22T04:21:25;100550.41;;;27.55
15709;BMP180;7954;51.914;8.420;2023-06-22T04:23:54;100540.19;;;27.56
15709;BMP180;7954;51.914;8.420;2023-06-22T04:26:22;100549.81;;;27.57
15709;BMP180;7954;51.914;8.420;2023-06-22T04:28:50;100560.53;;;27.60
15709;BMP180;7954;51.914;8.420;2023-06-22T04:31:21;100553.19;;;27.65
15709;BMP180;7954;51.914;8.420;2023-06-22T04:34:00;100563.00;;;27.76
15709;BMP180;7954;51.914;8.420;2023-06-22T04:36:34;100552.47;;;27.83
15709;BMP180;7954;51.914;8.420;2023-06-22T04:39:05;100555.22;;;27.92
15709;BMP180;7954;51.914;8.420;2023-06-22T04:41:33;100552.91;;;27.95
15709;BMP180;7954;51.914;8.420;2023-06-22T04:44:09;100553.38;;;28.00
15709;BMP180;7954;51.914;8.420;2023-06-22T04:46:37;100542.69;;;28.05
15709;BMP180;7954;51.914;8.420;2023-06-22T04:49:08;100534.88;;;28.14
15709;BMP180;7954;51.914;8.420;2023-06-22T04:51:39;100541.19;;;28.24
15709;BMP180;7954;51.914;8.420;2023-06-22T04:54:08;100532.94;;;28.28
15709;BMP180;7954;51.914;8.420;2023-06-22T04:56:36;100535.06;;;28.41
15709;BMP180;7954;51.914;8.420;2023-06-22T04:59:08;100530.88;;;28.51
15709;BMP180;7954;51.914;8.420;2023-06-22T05:01:39;100538.66;;;28.68
15709;BMP180;7954;51.914;8.420;2023-06-22T05:04:09;100538.66;;;28.76
15709;BMP180;7954;51.914;8.420;2023-06-22T05:06:38;100526.94;;;28.90
15709;BMP180;7954;51.914;8.420;2023-06-22T05:09:06;100526.59;;;29.04
15709;BMP180;7954;51.914;8.420;2023-06-22T05:11:34;100529.31;;;29.14
15709;BMP180;7954;51.914;8.420;2023-06-22T05:14:02;100520.56;;;29.13
15709;BMP180;7954;51.914;8.420;2023-06-22T05:16:30;100529.88;;;29.20
15709;BMP180;7954;51.914;8.420;2023-06-22T05:18:58;100520.53;;;29.22
15709;BMP180;7954;51.914;8.420;2023-06-22T05:21:28;100523.72;;;29.27
15709;BMP180;7954;51.914;8.420;2023-06-22T05:23:57;100520.94;;;29.34
15709;BMP180;7954;51.914;8.420;2023-06-22T05:26:31;100511.72;;;29.38
15709;BMP180;7954;51.914;8.420;2023-06-22T05:29:00;100514.97;;;29.35
15709;BMP180;7954;51.914;8.420;2023-06-22T05:31:29;100513.44;;;29.37
15709;BMP180;7954;51.914;8.420;2023-06-22T05:33:57;100514.78;;;29.42
15709;BMP180;7954;51.914;8.420;2023-06-22T05:36:27;100511.31;;;29.52
15709;BMP180;7954;51.914;8.420;2023-06-22T05:38:56;100516.19;;;29.57
15709;BMP180;7954;51.914;8.420;2023-06-22T05:41:24;100514.56;;;29.68
15709;BMP180;7954;51.914;8.420;2023-06-22T05:43:53;100524.94;;;29.76
15709;BMP180;7954;51.914;8.420;2023-06-22T05:46:21;100519.66;;;29.85
15709;BMP180;7954;51.914;8.420;2023-06-22T05:48:48;100525.88;;;29.95
15709;BMP180;7954;51.914;8.420;2023-06-22T05:51:16;100522.56;;;30.06
15709;BMP180;7954;51.914;8.420;2023-06-22T05:53:47;100517.84;;;30.20
15709;BMP180;7954;51.914;8.420;2023-06-22T05:56:16;100513.72;;;30.32
15709;BMP180;7954;51.914;8.420;2023-06-22T05:58:45;100517.47;;;30.44
15709;BMP180;7954;51.914;8.420;2023-06-22T06:01:13;100526.13;;;30.53
15709;BMP180;7954;51.914;8.420;2023-06-22T06:03:42;100528.38;;;30.59
15709;BMP180;7954;51.914;8.420;2023-06-22T06:06:11;100521.72;;;30.62
15709;BMP180;7954;51.914;8.420;2023-06-22T06:08:39;100518.47;;;30.74
15709;BMP180;7954;51.914;8.420;2023-06-22T06:11:09;100524.78;;;30.86
15709;BMP180;7954;51.914;8.420;2023-06-22T06:13:38;100523.31;;;30.98
15709;BMP180;7954;51.914;8.420;2023-06-22T06:16:07;100521.22;;;31.04
15709;BMP180;7954;51.914;8.420;2023-06-22T06:18:35;100528.81;;;31.11
15709;BMP180;7954;51.914;8.420;2023-06-22T06:21:04;100522.28;;;31.16
15709;BMP180;7954;51.914;8.420;2023-06-22T06:23:32;100518.38;;;31.21
15709;BMP180;7954;51.914;8.420;2023-06-22T06:26:00;100530.91;;;31.35
15709;BMP180;7954;51.914;8.420;2023-06-22T06:28:35;100521.81;;;31.50
15709;BMP180;7954;51.914;8.420;2023-06-22T06:31:03;100524.72;;;31.63
15709;BMP180;7954;51.914;8.420;2023-06-22T06:33:33;100523.53;;;31.79
15709;BMP180;7954;51.914;8.420;2023-06-22T06:36:02;100524.41;;;31.90
15709;BMP180;7954;51.914;8.420;2023-06-22T06:38:30;100520.47;;;31.94
15709;BMP180;7954;51.914;8.420;2023-06-22T06:40:58;100523.22;;;32.06
15709;BMP180;7954;51.914;8.420;2023-06-22T06:43:26;100512.09;;;32.08
15709;BMP180;7954;51.914;8.420;2023-06-22T06:45:55;100503.88;;;32.14
15709;BMP180;7954;51.914;8.420;2023-06-22T06:48:24;100514.56;;;32.17
15709;BMP180;7954;51.914;8.420;2023-06-22T06:50:52;100512.50;;;32.13
15709;BMP180;7954;51.914;8.420;2023-06-22T06:53:20;100522.09;;;32.02
15709;BMP180;7954;51.914;8.420;2023-06-22T06:55:48;100519.31;;;32.01
15709;BMP180;7954;51.914;8.420;2023-06-22T06:58:16;100517.84;;;31.94
15709;BMP180;7954;51.914;8.420;2023-06-22T07:00:44;100520.13;;;31.90
15709;BMP180;7954;51.914;8.420;2023-06-22T07:03:13;100530.03;;;31.84
15709;BMP180;7954;51.914;8.420;2023-06-22T07:05:41;100533.69;;;31.86
15709;BMP180;7954;51.914;8.420;2023-06-22T07:08:09;100523.38;;;31.88
15709;BMP180;7954;51.914;8.420;2023-06-22T07:10:37;100535.41;;;31.86
15709;BMP180;7954;51.914;8.420;2023-06-22T07:13:05;100530.28;;;31.87
15709;BMP180;7954;51.914;8.420;2023-06-22T07:15:33;100520.22;;;31.92
15709;BMP180;7954;51.914;8.420;2023-06-22T07:18:01;100525.59;;;32.03
15709;BMP180;7954;51.914;8.420;2023-06-22T07:20:30;100512.38;;;32.11
15709;BMP180;7954;51.914;8.420;2023-06-22T07:22:59;100514.56;;;32.17
15709;BMP180;7954;51.914;8.420;2023-06-22T07:25:26;100520.31;;;32.23
15709;BMP180;7954;51.914;8.420;2023-06-22T07:27:59;100514.88;;;32.10
15709;BMP180;7954;51.914;8.420;2023-06-22T07:30:28;100520.09;;;32.10
15709;BMP180;7954;51.914;8.420;2023-06-22T07:32:57;100512.50;;;32.13
15709;BMP180;7954;51.914;8.420;2023-06-22T07:35:32;100509.63;;;32.20
15709;BMP180;7954;51.914;8.420;2023-06-22T07:38:00;100513.00;;;32.19
15709;BMP180;7954;51.914;8.420;2023-06-22T07:40:31;100516.00;;;32.13
15709;BMP180;7954;51.914;8.420;2023-06-22T07:43:00;100514.72;;;32.08
15709;BMP180;7954;51.914;8.420;2023-06-22T07:45:28;100512.38;;;32.11
15709;BMP180;7954;51.914;8.420;2023-06-22T07:47:56;100503.56;;;32.21
15709;BMP180;7954;51.914;8.420;2023-06-22T07:50:25;100503.38;;;32.39
15709;BMP180;7954;51.914;8.420;2023-06-22T07:52:55;100507.28;;;32.54
15709;BMP180;7954;51.914;8.420;2023-06-22T07:55:23;100502.00;;;32.64
15709;BMP180;7954;51.914;8.420;2023-06-22T07:57:51;100501.84;;;32.72
15709;BMP180;7954;51.914;8.420;2023-06-22T08:00:19;100504.84;;;32.77
15709;BMP180;7954;51.914;8.420;2023-06-22T08:02:47;100506.13;;;32.82
15709;BMP180;7954;51.914;8.420;2023-06-22T08:05:16;100494.53;;;32.90
15709;BMP180;7954;51.914;8.420;2023-06-22T08:07:48;100497.06;;;33.10
15709;BMP180;7954;51.914;8.420;2023-06-22T08:10:18;100489.50;;;33.24
15709;BMP180;7954;51.914;8.420;2023-06-22T08:12:47;100487.38;;;33.41
15709;BMP180;7954;51.914;8.420;2023-06-22T08:15:15;100488.72;;;33.58
15709;BMP180;7954;51.914;8.420;2023-06-22T08:17:43;100495.09;;;33.61
15709;BMP180;7954;51.914;8.420;2023-06-22T08:20:12;100480.75;;;33.68
15709;BMP180;7954;51.914;8.420;2023-06-22T08:22:42;100470.63;;;33.72
15709;BMP180;7954;51.914;8.420;2023-06-22T08:25:11;100467.66;;;33.79
15709;BMP180;7954;51.914;8.420;2023-06-22T08:27:44;100458.63;;;33.76
15709;BMP180;7954;51.914;8.420;2023-06-22T08:30:12;100448.28;;;33.77
15709;BMP180;7954;51.914;8.420;2023-06-22T08:32:40;100448.50;;;33.92
15709;BMP180;7954;51.914;8.420;2023-06-22T08:35:08;100449.19;;;33.89
15709;BMP180;7954;51.914;8.420;2023-06-22T08:37:38;100451.97;;;34.02
15709;BMP180;7954;51.914;8.420;2023-06-22T08:40:07;100451.94;;;34.25
15709;BMP180;7954;51.914;8.420;2023-06-22T08:42:39;100458.78;;;34.46
15709;BMP180;7954;51.914;8.420;2023-06-22T08:45:10;100454.88;;;34.63
15709;BMP180;7954;51.914;8.420;2023-06-22T08:47:38;100455.75;;;34.75
15709;BMP180;7954;51.914;8.420;2023-06-22T08:50:08;100443.59;;;34.89
15709;BMP180;7954;51.914;8.420;2023-06-22T08:52:37;100435.47;;;34.97
15709;BMP180;7954;51.914;8.420;2023-06-22T08:55:08;100420.91;;;35.14
15709;BMP180;7954;51.914;8.420;2023-06-22T08:57:36;100411.13;;;35.24
15709;BMP180;7954;51.914;8.420;2023-06-22T09:00:07;100410.75;;;35.31
15709;BMP180;7954;51.914;8.420;2023-06-22T09:02:44;100424.38;;;35.50
15709;BMP180;7954;51.914;8.420;2023-06-22T09:05:12;100417.72;;;35.68
15709;BMP180;7954;51.914;8.420;2023-06-22T09:07:41;100415.53;;;35.87
15709;BMP180;7954;51.914;8.420;2023-06-22T09:10:10;100413.69;;;35.86
15709;BMP180;7954;51.914;8.420;2023-06-22T09:12:39;100409.94;;;35.69
15709;BMP180;7954;51.914;8.420;2023-06-22T09:15:08;100407.91;;;35.52
15709;BMP180;7954;51.914;8.420;2023-06-22T09:17:43;100392.19;;;35.41
15709;BMP180;7954;51.914;8.420;2023-06-22T09:20:13;100394.47;;;35.24
15709;BMP180;7954;51.914;8.420;2023-06-22T09:22:41;100393.34;;;35.33
15709;BMP180;7954;51.914;8.420;2023-06-22T09:25:09;100395.59;;;35.40
15709;BMP180;7954;51.914;8.420;2023-06-22T09:27:37;100404.66;;;35.56
15709;BMP180;7954;51.914;8.420;2023-06-22T09:30:06;100399.81;;;35.75
15709;BMP180;7954;51.914;8.420;2023-06-22T09:32:34;100401.78;;;35.91
15709;BMP180;7954;51.914;8.420;2023-06-22T09:35:05;100404.50;;;35.92
15709;BMP180;7954;51.914;8.420;2023-06-22T09:37:35;100394.69;;;36.15
15709;BMP180;7954;51.914;8.420;2023-06-22T09:40:04;100389.19;;;36.12
15709;BMP180;7954;51.914;8.420;2023-06-22T09:42:35;100388.81;;;36.19
15709;BMP180;7954;51.914;8.420;2023-06-22T09:45:05;100373.53;;;36.14
15709;BMP180;7954;51.914;8.420;2023-06-22T09:47:33;100376.88;;;36.11
15709;BMP180;7954;51.914;8.420;2023-06-22T09:50:01;100355.84;;;35.98
15709;BMP180;7954;51.914;8.420;2023-06-22T09:52:31;100350.78;;;36.01
15709;BMP180;7954;51.914;8.420;2023-06-22T09:55:14;100349.44;;;35.95
15709;BMP180;7954;51.914;8.420;2023-06-22T09:57:43;100358.91;;;35.92
15709;BMP180;7954;51.914;8.420;2023-06-22T10:00:12;100357.97;;;35.91
15709;BMP180;7954;51.914;8.420;2023-06-22T10:02:41;100363.22;;;35.91
15709;BMP180;7954;51.914;8.420;2023-06-22T10:05:10;100364.75;;;36.00
15709;BMP180;7954;51.914;8.420;2023-06-22T10:07:41;100360.25;;;36.12
15709;BMP180;7954;51.914;8.420;2023-06-22T10:10:11;100356.31;;;36.19
15709;BMP180;7954;51.914;8.420;2023-06-22T10:12:42;100358.97;;;36.06
15709;BMP180;7954;51.914;8.420;2023-06-22T10:15:10;100361.59;;;36.06
15709;BMP180;7954;51.914;8.420;2023-06-22T10:17:39;100368.59;;;36.05
15709;BMP180;7954;51.914;8.420;2023-06-22T10:20:08;100366.94;;;36.07
15709;BMP180;7954;51.914;8.420;2023-06-22T10:22:41;100372.91;;;36.18
15709;BMP180;7954;51.914;8.420;2023-06-22T10:25:12;100350.13;;;36.31
15709;BMP180;7954;51.914;8.420;2023-06-22T10:27:40;100352.34;;;36.38
15709;BMP180;7954;51.914;8.420;2023-06-22T10:30:09;100354.81;;;36.50
15709;BMP180;7954;51.914;8.420;2023-06-22T10:32:39;100349.78;;;36.67
15709;BMP180;7954;51.914;8.420;2023-06-22T10:35:09;100350.91;;;36.98
15709;BMP180;7954;51.914;8.420;2023-06-22T10:37:42;100352.50;;;37.52
15709;BMP180;7954;51.914;8.420;2023-06-22T10:40:12;100340.97;;;38.09
15709;BMP180;7954;51.914;8.420;2023-06-22T10:42:40;100321.56;;;38.39
15709;BMP180;7954;51.914;8.420;2023-06-22T10:45:08;100311.84;;;38.54
15709;BMP180;7954;51.914;8.420;2023-06-22T10:47:36;100307.88;;;38.77
15709;BMP180;7954;51.914;8.420;2023-06-22T10:50:06;100298.03;;;38.91
15709;BMP180;7954;51.914;8.420;2023-06-22T10:52:35;100295.72;;;38.97
15709;BMP180;7954;51.914;8.420;2023-06-22T10:55:06;100291.19;;;39.10
15709;BMP180;7954;51.914;8.420;2023-06-22T10:57:35;100281.56;;;39.12
15709;BMP180;7954;51.914;8.420;2023-06-22T11:00:03;100283.66;;;39.18
15709;BMP180;7954;51.914;8.420;2023-06-22T11:02:33;100286.31;;;39.35
15709;BMP180;7954;51.914;8.420;2023-06-22T11:05:01;100281.63;;;39.47
15709;BMP180;7954;51.914;8.420;2023-06-22T11:07:31;100275.97;;;39.57
15709;BMP180;7954;51.914;8.420;2023-06-22T11:09:59;100277.41;;;39.68
15709;BMP180;7954;51.914;8.420;2023-06-22T11:12:28;100275.06;;;39.74
15709;BMP180;7954;51.914;8.420;2023-06-22T11:14:57;100264.25;;;39.69
15709;BMP180;7954;51.914;8.420;2023-06-22T11:17:25;100263.38;;;39.51
15709;BMP180;7954;51.914;8.420;2023-06-22T11:19:53;100254.44;;;39.49
15709;BMP180;7954;51.914;8.420;2023-06-22T11:22:21;100255.88;;;39.43
15709;BMP180;7954;51.914;8.420;2023-06-22T11:24:49;100256.34;;;39.36
15709;BMP180;7954;51.914;8.420;2023-06-22T11:27:17;100250.78;;;39.30
15709;BMP180;7954;51.914;8.420;2023-06-22T11:29:49;100247.06;;;39.27
15709;BMP180;7954;51.914;8.420;2023-06-22T11:32:19;100248.19;;;39.14
15709;BMP180;7954;51.914;8.420;2023-06-22T11:34:47;100245.75;;;39.01
15709;BMP180;7954;51.914;8.420;2023-06-22T11:37:15;100244.41;;;38.93
15709;BMP180;7954;51.914;8.420;2023-06-22T11:39:43;100236.34;;;38.90
15709;BMP180;7954;51.914;8.420;2023-06-22T11:42:25;100230.59;;;38.99
15709;BMP180;7954;51.914;8.420;2023-06-22T11:44:56;100224.34;;;38.97
15709;BMP180;7954;51.914;8.420;2023-06-22T11:47:25;100226.66;;;39.07
15709;BMP180;7954;51.914;8.420;2023-06-22T11:49:54;100220.56;;;39.08
15709;BMP180;7954;51.914;8.420;2023-06-22T11:52:22;100220.75;;;39.12
15709;BMP180;7954;51.914;8.420;2023-06-22T11:54:50;100210.19;;;38.96
15709;BMP180;7954;51.914;8.420;2023-06-22T11:57:17;100213.31;;;38.88
15709;BMP180;7954;51.914;8.420;2023-06-22T11:59:45;100211.13;;;38.64
15709;BMP180;7954;51.914;8.420;2023-06-22T12:02:15;100210.38;;;38.34
15709;BMP180;7954;51.914;8.420;2023-06-22T12:04:43;100217.94;;;37.97
15709;BMP180;7954;51.914;8.420;2023-06-22T12:07:11;100216.78;;;37.76
15709;BMP180;7954;51.914;8.420;2023-06-22T12:09:39;100230.19;;;37.50
15709;BMP180;7954;51.914;8.420;2023-06-22T12:12:08;100245.59;;;37.14
15709;BMP180;7954;51.914;8.420;2023-06-22T12:14:35;100251.84;;;36.87
15709;BMP180;7954;51.914;8.420;2023-06-22T12:17:04;100258.25;;;36.63
15709;BMP180;7954;51.914;8.420;2023-06-22T12:19:33;100268.91;;;36.37
15709;BMP180;7954;51.914;8.420;2023-06-22T12:22:02;100266.16;;;36.08
15709;BMP180;7954;51.914;8.420;2023-06-22T12:24:30;100272.44;;;35.85
15709;BMP180;7954;51.914;8.420;2023-06-22T12:26:59;100264.09;;;35.64
15709;BMP180;7954;51.914;8.420;2023-06-22T12:29:28;100270.44;;;35.42
15709;BMP180;7954;51.914;8.420;2023-06-22T12:31:57;100277.91;;;35.23
15709;BMP180;7954;51.914;8.420;2023-06-22T12:34:25;100279.50;;;35.08
15709;BMP180;7954;51.914;8.420;2023-06-22T12:36:55;100278.44;;;34.93
15709;BMP180;7954;51.914;8.420;2023-06-22T12:39:23;100274.66;;;34.77
15709;BMP180;7954;51.914;8.420;2023-06-22T12:41:51;100279.06;;;34.65
15709;BMP180;7954;51.914;8.420;2023-06-22T12:44:19;100276.03;;;34.59
15709;BMP180;7954;51.914;8.420;2023-06-22T12:46:47;100267.66;;;34.52
15709;BMP180;7954;51.914;8.420;2023-06-22T12:49:15;100253.81;;;34.43
15709;BMP180;7954;51.914;8.420;2023-06-22T12:51:43;100252.06;;;34.30
15709;BMP180;7954;51.914;8.420;2023-06-22T12:54:13;100252.09;;;34.19
15709;BMP180;7954;51.914;8.420;2023-06-22T12:56:41;100230.28;;;34.07
15709;BMP180;7954;51.914;8.420;2023-06-22T12:59:10;100218.88;;;33.95
15709;BMP180;7954;51.914;8.420;2023-06-22T13:01:38;100218.59;;;33.79
15709;BMP180;7954;51.914;8.420;2023-06-22T13:04:07;100227.06;;;33.64
15709;BMP180;7954;51.914;8.420;2023-06-22T13:06:37;100231.75;;;33.45
15709;BMP180;7954;51.914;8.420;2023-06-22T13:09:05;100245.41;;;33.29
15709;BMP180;7954;51.914;8.420;2023-06-22T13:11:48;100253.75;;;33.13
15709;BMP180;7954;51.914;8.420;2023-06-22T13:14:16;100251.28;;;32.93
15709;BMP180;7954;51.914;8.420;2023-06-22T13:16:44;100255.72;;;32.82
15709;BMP180;7954;51.914;8.420;2023-06-22T13:19:12;100252.16;;;32.70
15709;BMP180;7954;51.914;8.420;2023-06-22T13:21:40;100252.25;;;32.60
15709;BMP180;7954;51.914;8.420;2023-06-22T13:24:08;100251.28;;;32.49
15709;BMP180;7954;51.914;8.420;2023-06-22T13:26:36;100258.28;;;32.38
15709;BMP180;7954;51.914;8.420;2023-06-22T13:29:06;100265.00;;;32.35
15709;BMP180;7954;51.914;8.420;2023-06-22T13:31:34;100254.28;;;32.32
15709;BMP180;7954;51.914;8.420;2023-06-22T13:34:02;100253.34;;;32.20
15709;BMP180;7954;51.914;8.420;2023-06-22T13:36:29;100270.56;;;32.06
15709;BMP180;7954;51.914;8.420;2023-06-22T13:38:58;100269.13;;;32.00
15709;BMP180;7954;51.914;8.420;2023-06-22T13:41:27;100264.56;;;31.97
15709;BMP180;7954;51.914;8.420;2023-06-22T13:43:55;100275.31;;;31.91
15709;BMP180;7954;51.914;8.420;2023-06-22T13:46:24;100293.00;;;31.83
15709;BMP180;7954;51.914;8.420;2023-06-22T13:48:53;100291.72;;;31.78
15709;BMP180;7954;51.914;8.420;2023-06-22T13:51:22;100282.16;;;31.79
15709;BMP180;7954;51.914;8.420;2023-06-22T13:53:50;100282.34;;;31.70
15709;BMP180;7954;51.914;8.420;2023-06-22T13:56:18;100265.50;;;31.67
15709;BMP180;7954;51.914;8.420;2023-06-22T13:58:46;100221.56;;;31.51
15709;BMP180;7954;51.914;8.420;2023-06-22T14:01:14;100195.75;;;31.34
15709;BMP180;7954;51.914;8.420;2023-06-22T14:03:44;100165.97;;;31.11
15709;BMP180;7954;51.914;8.420;2023-06-22T14:06:13;100139.91;;;30.91
15709;BMP180;7954;51.914;8.420;2023-06-22T14:08:41;100158.22;;;30.71
15709;BMP180;7954;51.914;8.420;2023-06-22T14:11:09;100167.38;;;30.57
15709;BMP180;7954;51.914;8.420;2023-06-22T14:13:37;100157.75;;;30.46
15709;BMP180;7954;51.914;8.420;2023-06-22T14:16:05;100146.88;;;30.41
15709;BMP180;7954;51.914;8.420;2023-06-22T14:18:33;100116.81;;;30.15
15709;BMP180;7954;51.914;8.420;2023-06-22T14:21:03;100092.34;;;30.03